sensor_id;sensor_type;location;lat;lon;timestamp;temperature;humidity
10247;DHT22;5168;47.854;7.944;2023-04-23T00:02:08;8.70;99.90
10247;DHT22;5168;47.854;7.944;2023-04-23T00:04:36;8.30;99.90
10247;DHT22;5168;47.854;7.944;2023-04-23T00:07:03;8.40;99.90
10247;DHT22;5168;47.854;7.944;2023-04-23T00:09:30;8.10;99.90
10247;DHT22;5168;47.854;7.944;2023-04-23T00:11:59;7.70;99.90
10247;DHT22;5168;47.854;7.944;2023-04-23T00:16:52;8.20;99.90
10247;DHT22;5168;47.854;7.944;2023-04-23T00:21:45;8.20;99.90
10247;DHT22;5168;47.854;7.944;2023-04-23T00:24:10;8.00;99.90
10247;DHT22;5168;47.854;7.944;2023-04-23T00:31:28;8.10;99.90
10247;DHT22;5168;47.854;7.944;2023-04-23T00:33:53;8.00;99.90
10247;DHT22;5168;47.854;7.944;2023-04-23T00:38:46;8.20;99.90
10247;DHT22;5168;47.854;7.944;2023-04-23T00:41:12;7.80;99.90
10247;DHT22;5168;47.854;7.944;2023-04-23T00:43:38;8.00;99.90
10247;DHT22;5168;47.854;7.944;2023-04-23T00:46:04;7.80;99.90
10247;DHT22;5168;47.854;7.944;2023-04-23T00:48:31;7.60;99.90
10247;DHT22;5168;47.854;7.944;2023-04-23T00:50:58;7.60;99.90
10247;DHT22;5168;47.854;7.944;2023-04-23T00:53:25;7.30;99.90
10247;DHT22;5168;47.854;7.944;2023-04-23T00:55:51;7.60;99.90
10247;DHT22;5168;47.854;7.944;2023-04-23T00:58:17;8.20;99.90
10247;DHT22;5168;47.854;7.944;2023-04-23T01:00:45;7.90;99.90
10247;DHT22;5168;47.854;7.944;2023-04-23T01:03:11;8.00;99.90
10247;DHT22;5168;47.854;7.944;2023-04-23T01:05:39;7.80;99.90
10247;DHT22;5168;47.854;7.944;2023-04-23T01:10:32;8.10;99.90
10247;DHT22;5168;47.854;7.944;2023-04-23T01:12:57;7.30;99.90
10247;DHT22;5168;47.854;7.944;2023-04-23T01:15:23;7.40;99.90
10247;DHT22;5168;47.854;7.944;2023-04-23T01:17:49;7.60;99.90
10247;DHT22;5168;47.854;7.944;2023-04-23T01:22:41;7.20;99.90
10247;DHT22;5168;47.854;7.944;2023-04-23T01:25:07;7.20;99.90
10247;DHT22;5168;47.854;7.944;2023-04-23T01:27:33;7.60;99.90
10247;DHT22;5168;47.854;7.944;2023-04-23T01:30:02;7.50;99.90
10247;DHT22;5168;47.854;7.944;2023-04-23T01:32:29;7.60;99.90
10247;DHT22;5168;47.854;7.944;2023-04-23T01:34:55;7.30;99.90
10247;DHT22;5168;47.854;7.944;2023-04-23T01:37:22;7.30;99.90
10247;DHT22;5168;47.854;7.944;2023-04-23T01:39:50;7.40;99.90
10247;DHT22;5168;47.854;7.944;2023-04-23T01:47:09;6.90;99.90
10247;DHT22;5168;47.854;7.944;2023-04-23T01:49:35;6.80;99.90
10247;DHT22;5168;47.854;7.944;2023-04-23T01:52:01;6.90;99.90
10247;DHT22;5168;47.854;7.944;2023-04-23T01:54:26;6.90;99.90
10247;DHT22;5168;47.854;7.944;2023-04-23T01:56:52;7.00;99.90
10247;DHT22;5168;47.854;7.944;2023-04-23T01:59:20;6.30;99.90
10247;DHT22;5168;47.854;7.944;2023-04-23T02:04:14;6.90;99.90
10247;DHT22;5168;47.854;7.944;2023-04-23T02:06:41;7.10;99.90
10247;DHT22;5168;47.854;7.944;2023-04-23T02:11:35;6.80;99.90
10247;DHT22;5168;47.854;7.944;2023-04-23T02:21:22;6.80;99.90
10247;DHT22;5168;47.854;7.944;2023-04-23T02:26:15;6.70;99.90
10247;DHT22;5168;47.854;7.944;2023-04-23T02:28:41;6.90;99.90
10247;DHT22;5168;47.854;7.944;2023-04-23T02:31:06;7.00;99.90
10247;DHT22;5168;47.854;7.944;2023-04-23T02:35:58;6.50;99.90
10247;DHT22;5168;47.854;7.944;2023-04-23T02:38:24;6.40;99.90
10247;DHT22;5168;47.854;7.944;2023-04-23T02:40:49;6.80;99.90
10247;DHT22;5168;47.854;7.944;2023-04-23T02:43:15;6.80;99.90
10247;DHT22;5168;47.854;7.944;2023-04-23T02:48:09;6.60;99.90
10247;DHT22;5168;47.854;7.944;2023-04-23T02:53:06;6.60;99.90
10247;DHT22;5168;47.854;7.944;2023-04-23T02:55:32;6.90;99.90
10247;DHT22;5168;47.854;7.944;2023-04-23T02:57:58;6.50;99.90
10247;DHT22;5168;47.854;7.944;2023-04-23T03:00:25;6.90;99.90
10247;DHT22;5168;47.854;7.944;2023-04-23T03:02:50;6.80;99.90
10247;DHT22;5168;47.854;7.944;2023-04-23T03:05:18;6.50;99.90
10247;DHT22;5168;47.854;7.944;2023-04-23T03:10:09;6.70;99.90
10247;DHT22;5168;47.854;7.944;2023-04-23T03:12:36;6.60;99.90
10247;DHT22;5168;47.854;7.944;2023-04-23T03:19:54;6.50;99.90
10247;DHT22;5168;47.854;7.944;2023-04-23T03:22:19;6.70;99.90
10247;DHT22;5168;47.854;7.944;2023-04-23T03:24:45;6.90;99.90
10247;DHT22;5168;47.854;7.944;2023-04-23T03:29:36;6.50;99.90
10247;DHT22;5168;47.854;7.944;2023-04-23T03:32:02;6.80;99.90
10247;DHT22;5168;47.854;7.944;2023-04-23T03:34:28;6.60;99.90
10247;DHT22;5168;47.854;7.944;2023-04-23T03:36:53;6.50;99.90
10247;DHT22;5168;47.854;7.944;2023-04-23T03:46:38;6.50;99.90
10247;DHT22;5168;47.854;7.944;2023-04-23T03:49:04;6.70;99.90
10247;DHT22;5168;47.854;7.944;2023-04-23T04:06:06;6.40;99.90
10247;DHT22;5168;47.854;7.944;2023-04-23T04:08:32;6.70;99.90
10247;DHT22;5168;47.854;7.944;2023-04-23T04:10:57;6.40;99.90
10247;DHT22;5168;47.854;7.944;2023-04-23T04:18:16;6.40;99.90
10247;DHT22;5168;47.854;7.944;2023-04-23T04:20:42;6.80;99.90
10247;DHT22;5168;47.854;7.944;2023-04-23T04:23:08;6.90;99.90
10247;DHT22;5168;47.854;7.944;2023-04-23T04:25:34;7.00;99.90
10247;DHT22;5168;47.854;7.944;2023-04-23T04:28:07;6.30;99.90
10247;DHT22;5168;47.854;7.944;2023-04-23T04:30:35;6.50;99.90
10247;DHT22;5168;47.854;7.944;2023-04-23T04:33:02;6.70;99.90
10247;DHT22;5168;47.854;7.944;2023-04-23T04:40:20;6.30;99.90
10247;DHT22;5168;47.854;7.944;2023-04-23T04:42:45;6.40;99.90
10247;DHT22;5168;47.854;7.944;2023-04-23T04:45:11;6.80;99.90
10247;DHT22;5168;47.854;7.944;2023-04-23T04:47:37;7.10;99.90
10247;DHT22;5168;47.854;7.944;2023-04-23T04:50:03;6.60;99.90
10247;DHT22;5168;47.854;7.944;2023-04-23T04:54:55;6.60;99.90
10247;DHT22;5168;47.854;7.944;2023-04-23T04:57:22;6.50;99.90
10247;DHT22;5168;47.854;7.944;2023-04-23T04:59:48;6.50;99.90
10247;DHT22;5168;47.854;7.944;2023-04-23T05:02:14;6.60;99.90
10247;DHT22;5168;47.854;7.944;2023-04-23T05:04:40;6.30;99.90
10247;DHT22;5168;47.854;7.944;2023-04-23T05:07:06;6.30;99.90
10247;DHT22;5168;47.854;7.944;2023-04-23T05:11:57;6.70;99.90
10247;DHT22;5168;47.854;7.944;2023-04-23T05:16:51;6.80;99.90
10247;DHT22;5168;47.854;7.944;2023-04-23T05:19:16;6.50;99.90
10247;DHT22;5168;47.854;7.944;2023-04-23T05:29:00;6.60;99.90
10247;DHT22;5168;47.854;7.944;2023-04-23T05:31:25;6.90;99.90
10247;DHT22;5168;47.854;7.944;2023-04-23T05:33:52;6.50;99.90
10247;DHT22;5168;47.854;7.944;2023-04-23T05:36:17;6.80;99.90
10247;DHT22;5168;47.854;7.944;2023-04-23T05:46:01;6.60;99.90
10247;DHT22;5168;47.854;7.944;2023-04-23T05:48:28;7.10;99.90
10247;DHT22;5168;47.854;7.944;2023-04-23T05:50:54;7.30;99.90
10247;DHT22;5168;47.854;7.944;2023-04-23T05:53:19;6.70;99.90
10247;DHT22;5168;47.854;7.944;2023-04-23T05:55:45;7.40;99.90
10247;DHT22;5168;47.854;7.944;2023-04-23T05:58:10;7.00;99.90
10247;DHT22;5168;47.854;7.944;2023-04-23T06:00:36;7.00;99.90
10247;DHT22;5168;47.854;7.944;2023-04-23T06:10:20;7.30;99.90
10247;DHT22;5168;47.854;7.944;2023-04-23T06:12:45;6.90;99.90
10247;DHT22;5168;47.854;7.944;2023-04-23T06:15:11;6.60;99.90
10247;DHT22;5168;47.854;7.944;2023-04-23T06:20:03;7.10;99.90
10247;DHT22;5168;47.854;7.944;2023-04-23T06:22:29;7.00;99.90
10247;DHT22;5168;47.854;7.944;2023-04-23T06:24:55;6.70;99.90
10247;DHT22;5168;47.854;7.944;2023-04-23T06:32:13;6.90;99.90
10247;DHT22;5168;47.854;7.944;2023-04-23T06:34:40;7.00;99.90
10247;DHT22;5168;47.854;7.944;2023-04-23T06:39:32;7.50;99.90
10247;DHT22;5168;47.854;7.944;2023-04-23T06:41:58;7.00;99.90
10247;DHT22;5168;47.854;7.944;2023-04-23T06:44:23;7.50;99.90
10247;DHT22;5168;47.854;7.944;2023-04-23T06:46:49;7.30;99.90
10247;DHT22;5168;47.854;7.944;2023-04-23T06:49:14;7.50;99.90
10247;DHT22;5168;47.854;7.944;2023-04-23T06:58:58;7.30;99.90
10247;DHT22;5168;47.854;7.944;2023-04-23T07:01:23;8.00;99.90
10247;DHT22;5168;47.854;7.944;2023-04-23T07:03:50;7.60;99.90
10247;DHT22;5168;47.854;7.944;2023-04-23T07:06:18;7.50;99.90
10247;DHT22;5168;47.854;7.944;2023-04-23T07:08:44;7.80;99.90
10247;DHT22;5168;47.854;7.944;2023-04-23T07:11:10;7.70;99.90
10247;DHT22;5168;47.854;7.944;2023-04-23T07:13:36;7.90;99.90
10247;DHT22;5168;47.854;7.944;2023-04-23T07:16:02;8.20;99.90
10247;DHT22;5168;47.854;7.944;2023-04-23T07:25:45;9.30;99.90
10247;DHT22;5168;47.854;7.944;2023-04-23T07:28:11;9.90;99.90
10247;DHT22;5168;47.854;7.944;2023-04-23T07:30:36;9.70;99.90
10247;DHT22;5168;47.854;7.944;2023-04-23T07:35:28;9.90;99.90
10247;DHT22;5168;47.854;7.944;2023-04-23T07:40:22;9.80;99.90
10247;DHT22;5168;47.854;7.944;2023-04-23T07:42:49;9.70;99.90
10247;DHT22;5168;47.854;7.944;2023-04-23T07:54:59;9.90;99.90
10247;DHT22;5168;47.854;7.944;2023-04-23T07:57:24;9.90;99.90
10247;DHT22;5168;47.854;7.944;2023-04-23T07:59:50;9.70;99.90
10247;DHT22;5168;47.854;7.944;2023-04-23T08:02:16;10.00;99.90
10247;DHT22;5168;47.854;7.944;2023-04-23T08:04:44;10.40;99.90
10247;DHT22;5168;47.854;7.944;2023-04-23T08:12:01;10.80;99.90
10247;DHT22;5168;47.854;7.944;2023-04-23T08:14:27;10.90;99.90
10247;DHT22;5168;47.854;7.944;2023-04-23T08:16:53;10.80;99.90
10247;DHT22;5168;47.854;7.944;2023-04-23T08:21:44;11.50;99.90
10247;DHT22;5168;47.854;7.944;2023-04-23T08:24:10;11.80;99.90
10247;DHT22;5168;47.854;7.944;2023-04-23T08:26:35;11.70;99.90
10247;DHT22;5168;47.854;7.944;2023-04-23T08:29:01;12.50;99.90
10247;DHT22;5168;47.854;7.944;2023-04-23T08:31:27;12.40;99.90
10247;DHT22;5168;47.854;7.944;2023-04-23T08:36:22;12.60;99.90
10247;DHT22;5168;47.854;7.944;2023-04-23T08:38:47;13.40;99.90
10247;DHT22;5168;47.854;7.944;2023-04-23T08:41:14;13.70;99.90
10247;DHT22;5168;47.854;7.944;2023-04-23T08:44:11;14.10;99.90
10247;DHT22;5168;47.854;7.944;2023-04-23T08:46:41;13.40;99.90
10247;DHT22;5168;47.854;7.944;2023-04-23T08:49:12;13.90;99.90
10247;DHT22;5168;47.854;7.944;2023-04-23T08:52:27;13.00;99.90
10247;DHT22;5168;47.854;7.944;2023-04-23T08:54:30;13.20;99.90
10247;DHT22;5168;47.854;7.944;2023-04-23T08:56:57;13.40;99.90
10247;DHT22;5168;47.854;7.944;2023-04-23T08:59:27;12.90;99.90
10247;DHT22;5168;47.854;7.944;2023-04-23T09:01:54;13.40;99.90
10247;DHT22;5168;47.854;7.944;2023-04-23T09:04:21;13.80;99.90
10247;DHT22;5168;47.854;7.944;2023-04-23T09:09:15;14.20;99.90
10247;DHT22;5168;47.854;7.944;2023-04-23T09:11:42;14.40;99.90
10247;DHT22;5168;47.854;7.944;2023-04-23T09:14:09;14.00;99.90
10247;DHT22;5168;47.854;7.944;2023-04-23T09:16:38;13.90;99.90
10247;DHT22;5168;47.854;7.944;2023-04-23T09:19:09;14.00;99.90
10247;DHT22;5168;47.854;7.944;2023-04-23T09:21:35;13.50;99.90
10247;DHT22;5168;47.854;7.944;2023-04-23T09:24:08;13.50;99.90
10247;DHT22;5168;47.854;7.944;2023-04-23T09:26:46;13.70;99.90
10247;DHT22;5168;47.854;7.944;2023-04-23T09:29:22;13.70;99.90
10247;DHT22;5168;47.854;7.944;2023-04-23T09:31:51;14.60;99.90
10247;DHT22;5168;47.854;7.944;2023-04-23T09:34:19;15.00;99.90
10247;DHT22;5168;47.854;7.944;2023-04-23T09:36:48;14.30;99.90
10247;DHT22;5168;47.854;7.944;2023-04-23T09:39:16;14.20;99.90
10247;DHT22;5168;47.854;7.944;2023-04-23T09:41:43;14.50;99.90
10247;DHT22;5168;47.854;7.944;2023-04-23T09:46:39;14.40;99.90
10247;DHT22;5168;47.854;7.944;2023-04-23T09:49:06;14.10;99.90
10247;DHT22;5168;47.854;7.944;2023-04-23T09:51:38;14.10;99.90
10247;DHT22;5168;47.854;7.944;2023-04-23T09:54:18;14.30;99.90
10247;DHT22;5168;47.854;7.944;2023-04-23T09:56:48;14.30;99.90
10247;DHT22;5168;47.854;7.944;2023-04-23T09:59:21;13.80;99.90
10247;DHT22;5168;47.854;7.944;2023-04-23T10:04:23;13.60;99.90
10247;DHT22;5168;47.854;7.944;2023-04-23T10:06:57;13.60;99.90
10247;DHT22;5168;47.854;7.944;2023-04-23T10:09:23;13.70;99.90
10247;DHT22;5168;47.854;7.944;2023-04-23T10:12:00;14.20;99.90
10247;DHT22;5168;47.854;7.944;2023-04-23T10:14:28;14.00;99.90
10247;DHT22;5168;47.854;7.944;2023-04-23T10:16:58;13.30;99.90
10247;DHT22;5168;47.854;7.944;2023-04-23T10:19:27;13.50;99.90
10247;DHT22;5168;47.854;7.944;2023-04-23T10:24:25;13.00;99.90
10247;DHT22;5168;47.854;7.944;2023-04-23T10:26:56;12.80;99.90
10247;DHT22;5168;47.854;7.944;2023-04-23T10:29:29;12.60;99.90
10247;DHT22;5168;47.854;7.944;2023-04-23T10:31:56;13.00;99.90
10247;DHT22;5168;47.854;7.944;2023-04-23T10:34:28;13.60;99.90
10247;DHT22;5168;47.854;7.944;2023-04-23T10:36:54;13.10;99.90
10247;DHT22;5168;47.854;7.944;2023-04-23T10:39:23;13.50;99.90
10247;DHT22;5168;47.854;7.944;2023-04-23T10:41:53;13.80;99.90
10247;DHT22;5168;47.854;7.944;2023-04-23T10:44:19;13.80;99.90
10247;DHT22;5168;47.854;7.944;2023-04-23T10:46:53;14.40;99.90
10247;DHT22;5168;47.854;7.944;2023-04-23T10:49:22;13.80;99.90
10247;DHT22;5168;47.854;7.944;2023-04-23T10:51:48;13.80;99.90
10247;DHT22;5168;47.854;7.944;2023-04-23T10:54:15;13.90;99.90
10247;DHT22;5168;47.854;7.944;2023-04-23T10:56:41;14.20;99.90
10247;DHT22;5168;47.854;7.944;2023-04-23T10:59:20;14.00;99.90
10247;DHT22;5168;47.854;7.944;2023-04-23T11:01:49;13.70;99.90
10247;DHT22;5168;47.854;7.944;2023-04-23T11:06:57;13.90;99.90
10247;DHT22;5168;47.854;7.944;2023-04-23T11:09:40;14.30;99.90
10247;DHT22;5168;47.854;7.944;2023-04-23T11:12:08;14.60;99.90
10247;DHT22;5168;47.854;7.944;2023-04-23T11:17:02;15.00;99.90
10247;DHT22;5168;47.854;7.944;2023-04-23T11:19:28;15.20;99.90
10247;DHT22;5168;47.854;7.944;2023-04-23T11:22:32;15.10;99.90
10247;DHT22;5168;47.854;7.944;2023-04-23T11:24:58;15.30;99.90
10247;DHT22;5168;47.854;7.944;2023-04-23T11:29:51;14.80;99.90
10247;DHT22;5168;47.854;7.944;2023-04-23T11:34:44;14.70;99.90
10247;DHT22;5168;47.854;7.944;2023-04-23T11:37:11;14.60;99.90
10247;DHT22;5168;47.854;7.944;2023-04-23T11:39:38;14.50;99.90
10247;DHT22;5168;47.854;7.944;2023-04-23T11:42:09;15.40;99.90
10247;DHT22;5168;47.854;7.944;2023-04-23T11:44:37;14.90;99.90
10247;DHT22;5168;47.854;7.944;2023-04-23T11:49:29;15.80;99.90
10247;DHT22;5168;47.854;7.944;2023-04-23T11:51:58;15.50;99.90
10247;DHT22;5168;47.854;7.944;2023-04-23T11:54:27;15.60;99.90
10247;DHT22;5168;47.854;7.944;2023-04-23T11:56:54;15.70;99.90
10247;DHT22;5168;47.854;7.944;2023-04-23T11:59:20;15.70;99.90
10247;DHT22;5168;47.854;7.944;2023-04-23T12:01:47;15.10;99.90
10247;DHT22;5168;47.854;7.944;2023-04-23T12:04:18;15.30;99.90
10247;DHT22;5168;47.854;7.944;2023-04-23T12:06:45;14.70;99.90
10247;DHT22;5168;47.854;7.944;2023-04-23T12:09:12;14.60;99.90
10247;DHT22;5168;47.854;7.944;2023-04-23T12:11:42;14.60;99.90
10247;DHT22;5168;47.854;7.944;2023-04-23T12:14:09;14.00;99.90
10247;DHT22;5168;47.854;7.944;2023-04-23T12:23:55;13.50;99.90
10247;DHT22;5168;47.854;7.944;2023-04-23T12:26:21;13.80;99.90
10247;DHT22;5168;47.854;7.944;2023-04-23T12:28:52;13.30;99.90
10247;DHT22;5168;47.854;7.944;2023-04-23T12:31:22;13.80;99.90
10247;DHT22;5168;47.854;7.944;2023-04-23T12:36:27;14.00;99.90
10247;DHT22;5168;47.854;7.944;2023-04-23T12:39:18;13.70;99.90
10247;DHT22;5168;47.854;7.944;2023-04-23T12:41:45;13.70;99.90
10247;DHT22;5168;47.854;7.944;2023-04-23T12:44:10;13.40;99.90
10247;DHT22;5168;47.854;7.944;2023-04-23T12:46:36;13.90;99.90
10247;DHT22;5168;47.854;7.944;2023-04-23T12:49:01;13.60;99.90
10247;DHT22;5168;47.854;7.944;2023-04-23T13:01:12;14.70;99.90
10247;DHT22;5168;47.854;7.944;2023-04-23T13:03:38;14.40;99.90
10247;DHT22;5168;47.854;7.944;2023-04-23T13:06:04;13.90;99.90
10247;DHT22;5168;47.854;7.944;2023-04-23T13:13:25;14.00;99.90
10247;DHT22;5168;47.854;7.944;2023-04-23T13:15:51;14.40;99.90
10247;DHT22;5168;47.854;7.944;2023-04-23T13:18:17;14.40;99.90
10247;DHT22;5168;47.854;7.944;2023-04-23T13:20:43;14.60;99.90
10247;DHT22;5168;47.854;7.944;2023-04-23T13:25:36;14.20;99.90
10247;DHT22;5168;47.854;7.944;2023-04-23T13:28:02;14.40;99.90
10247;DHT22;5168;47.854;7.944;2023-04-23T13:32:53;14.90;99.90
10247;DHT22;5168;47.854;7.944;2023-04-23T13:35:21;14.60;99.90
10247;DHT22;5168;47.854;7.944;2023-04-23T13:37:46;14.10;99.90
10247;DHT22;5168;47.854;7.944;2023-04-23T13:40:12;14.90;99.90
10247;DHT22;5168;47.854;7.944;2023-04-23T13:45:04;14.50;99.90
10247;DHT22;5168;47.854;7.944;2023-04-23T13:47:30;14.30;99.90
10247;DHT22;5168;47.854;7.944;2023-04-23T13:49:59;15.00;99.90
10247;DHT22;5168;47.854;7.944;2023-04-23T13:52:27;15.20;99.90
10247;DHT22;5168;47.854;7.944;2023-04-23T13:54:53;15.00;99.90
10247;DHT22;5168;47.854;7.944;2023-04-23T13:57:21;14.70;99.90
10247;DHT22;5168;47.854;7.944;2023-04-23T13:59:48;14.30;99.90
10247;DHT22;5168;47.854;7.944;2023-04-23T14:02:13;14.90;99.90
10247;DHT22;5168;47.854;7.944;2023-04-23T14:04:39;14.90;99.90
10247;DHT22;5168;47.854;7.944;2023-04-23T14:11:56;12.60;99.90
10247;DHT22;5168;47.854;7.944;2023-04-23T14:14:22;12.00;99.90
10247;DHT22;5168;47.854;7.944;2023-04-23T14:16:47;12.10;99.90
10247;DHT22;5168;47.854;7.944;2023-04-23T14:21:39;11.50;99.90
10247;DHT22;5168;47.854;7.944;2023-04-23T14:24:21;11.40;99.90
10247;DHT22;5168;47.854;7.944;2023-04-23T14:26:46;11.60;99.90
10247;DHT22;5168;47.854;7.944;2023-04-23T14:29:22;11.50;99.90
10247;DHT22;5168;47.854;7.944;2023-04-23T14:31:50;12.10;99.90
10247;DHT22;5168;47.854;7.944;2023-04-23T14:39:07;12.50;99.90
10247;DHT22;5168;47.854;7.944;2023-04-23T14:41:33;12.70;99.90
10247;DHT22;5168;47.854;7.944;2023-04-23T14:44:02;12.80;99.90
10247;DHT22;5168;47.854;7.944;2023-04-23T14:46:27;13.10;99.90
10247;DHT22;5168;47.854;7.944;2023-04-23T14:48:53;13.10;99.90
10247;DHT22;5168;47.854;7.944;2023-04-23T14:51:19;12.50;99.90
10247;DHT22;5168;47.854;7.944;2023-04-23T14:58:36;13.40;99.90
10247;DHT22;5168;47.854;7.944;2023-04-23T15:01:03;13.10;99.90
10247;DHT22;5168;47.854;7.944;2023-04-23T15:03:28;13.60;99.90
10247;DHT22;5168;47.854;7.944;2023-04-23T15:05:54;13.60;99.90
10247;DHT22;5168;47.854;7.944;2023-04-23T15:08:20;13.40;99.90
10247;DHT22;5168;47.854;7.944;2023-04-23T15:15:48;13.60;99.90
10247;DHT22;5168;47.854;7.944;2023-04-23T15:18:15;13.10;99.90
10247;DHT22;5168;47.854;7.944;2023-04-23T15:20:42;13.70;99.90
10247;DHT22;5168;47.854;7.944;2023-04-23T15:23:08;13.30;99.90
10247;DHT22;5168;47.854;7.944;2023-04-23T15:25:34;12.90;99.90
10247;DHT22;5168;47.854;7.944;2023-04-23T15:28:00;14.00;99.90
10247;DHT22;5168;47.854;7.944;2023-04-23T15:30:26;13.50;99.90
10247;DHT22;5168;47.854;7.944;2023-04-23T15:32:53;13.20;99.90
10247;DHT22;5168;47.854;7.944;2023-04-23T15:35:25;12.90;99.90
10247;DHT22;5168;47.854;7.944;2023-04-23T15:37:52;13.00;99.90
10247;DHT22;5168;47.854;7.944;2023-04-23T15:40:18;12.80;99.90
10247;DHT22;5168;47.854;7.944;2023-04-23T15:42:44;13.40;99.90
10247;DHT22;5168;47.854;7.944;2023-04-23T15:45:11;13.20;99.90
10247;DHT22;5168;47.854;7.944;2023-04-23T15:47:37;13.30;99.90
10247;DHT22;5168;47.854;7.944;2023-04-23T15:50:07;12.40;99.90
10247;DHT22;5168;47.854;7.944;2023-04-23T15:52:33;12.60;99.90
10247;DHT22;5168;47.854;7.944;2023-04-23T15:54:59;12.40;99.90
10247;DHT22;5168;47.854;7.944;2023-04-23T15:57:24;12.00;99.90
10247;DHT22;5168;47.854;7.944;2023-04-23T15:59:50;12.10;99.90
10247;DHT22;5168;47.854;7.944;2023-04-23T16:02:16;12.40;99.90
10247;DHT22;5168;47.854;7.944;2023-04-23T16:04:42;11.50;99.90
10247;DHT22;5168;47.854;7.944;2023-04-23T16:19:18;11.70;99.90
10247;DHT22;5168;47.854;7.944;2023-04-23T16:21:44;11.30;99.90
10247;DHT22;5168;47.854;7.944;2023-04-23T16:24:09;11.60;99.90
10247;DHT22;5168;47.854;7.944;2023-04-23T16:26:36;11.40;99.90
10247;DHT22;5168;47.854;7.944;2023-04-23T16:29:02;12.20;99.90
10247;DHT22;5168;47.854;7.944;2023-04-23T16:31:28;11.40;99.90
10247;DHT22;5168;47.854;7.944;2023-04-23T16:38:45;11.70;99.90
10247;DHT22;5168;47.854;7.944;2023-04-23T16:41:13;12.20;99.90
10247;DHT22;5168;47.854;7.944;2023-04-23T16:46:06;11.80;99.90
10247;DHT22;5168;47.854;7.944;2023-04-23T16:48:34;11.40;99.90
10247;DHT22;5168;47.854;7.944;2023-04-23T16:53:26;11.50;99.90
10247;DHT22;5168;47.854;7.944;2023-04-23T16:55:51;11.90;99.90
10247;DHT22;5168;47.854;7.944;2023-04-23T16:58:17;11.50;99.90
10247;DHT22;5168;47.854;7.944;2023-04-23T17:05:40;11.00;99.90
10247;DHT22;5168;47.854;7.944;2023-04-23T17:08:05;11.40;99.90
10247;DHT22;5168;47.854;7.944;2023-04-23T17:12:57;11.50;99.90
10247;DHT22;5168;47.854;7.944;2023-04-23T17:15:22;11.40;99.90
10247;DHT22;5168;47.854;7.944;2023-04-23T17:17:48;11.40;99.90
10247;DHT22;5168;47.854;7.944;2023-04-23T17:25:06;11.20;99.90
10247;DHT22;5168;47.854;7.944;2023-04-23T17:27:32;10.80;99.90
10247;DHT22;5168;47.854;7.944;2023-04-23T17:29:57;11.00;99.90
10247;DHT22;5168;47.854;7.944;2023-04-23T17:32:23;11.10;99.90
10247;DHT22;5168;47.854;7.944;2023-04-23T17:42:06;9.90;99.90
10247;DHT22;5168;47.854;7.944;2023-04-23T17:44:32;9.60;99.90
10247;DHT22;5168;47.854;7.944;2023-04-23T17:49:26;9.10;99.90
10247;DHT22;5168;47.854;7.944;2023-04-23T17:51:51;9.00;99.90
10247;DHT22;5168;47.854;7.944;2023-04-23T17:54:17;9.30;99.90
10247;DHT22;5168;47.854;7.944;2023-04-23T17:56:42;8.90;99.90
10247;DHT22;5168;47.854;7.944;2023-04-23T17:59:08;8.50;99.90
10247;DHT22;5168;47.854;7.944;2023-04-23T18:08:53;8.20;99.90
10247;DHT22;5168;47.854;7.944;2023-04-23T18:11:18;8.30;99.90
10247;DHT22;5168;47.854;7.944;2023-04-23T18:18:36;8.00;99.90
10247;DHT22;5168;47.854;7.944;2023-04-23T18:21:03;8.00;99.90
10247;DHT22;5168;47.854;7.944;2023-04-23T18:25:55;7.50;99.90
10247;DHT22;5168;47.854;7.944;2023-04-23T18:36:04;8.00;99.90
10247;DHT22;5168;47.854;7.944;2023-04-23T18:38:44;8.10;99.90
10247;DHT22;5168;47.854;7.944;2023-04-23T18:51:24;7.40;99.90
10247;DHT22;5168;47.854;7.944;2023-04-23T18:53:50;7.80;99.90
10247;DHT22;5168;47.854;7.944;2023-04-23T19:01:11;7.50;99.90
10247;DHT22;5168;47.854;7.944;2023-04-23T19:03:37;7.30;99.90
10247;DHT22;5168;47.854;7.944;2023-04-23T19:08:33;7.40;99.90
10247;DHT22;5168;47.854;7.944;2023-04-23T19:10:58;7.00;99.90
10247;DHT22;5168;47.854;7.944;2023-04-23T19:15:50;7.00;99.90
10247;DHT22;5168;47.854;7.944;2023-04-23T19:18:17;7.40;99.90
10247;DHT22;5168;47.854;7.944;2023-04-23T19:20:43;7.30;99.90
10247;DHT22;5168;47.854;7.944;2023-04-23T19:25:35;6.80;99.90
10247;DHT22;5168;47.854;7.944;2023-04-23T19:28:01;6.80;99.90
10247;DHT22;5168;47.854;7.944;2023-04-23T19:30:27;7.60;99.90
10247;DHT22;5168;47.854;7.944;2023-04-23T19:32:52;6.90;99.90
10247;DHT22;5168;47.854;7.944;2023-04-23T19:35:18;7.00;99.90
10247;DHT22;5168;47.854;7.944;2023-04-23T19:40:11;6.90;99.90
10247;DHT22;5168;47.854;7.944;2023-04-23T19:42:37;7.30;99.90
10247;DHT22;5168;47.854;7.944;2023-04-23T19:49:56;7.40;99.90
10247;DHT22;5168;47.854;7.944;2023-04-23T19:52:25;6.60;99.90
10247;DHT22;5168;47.854;7.944;2023-04-23T19:54:50;7.10;99.90
10247;DHT22;5168;47.854;7.944;2023-04-23T19:57:17;7.30;99.90
10247;DHT22;5168;47.854;7.944;2023-04-23T20:02:10;6.90;99.90
10247;DHT22;5168;47.854;7.944;2023-04-23T20:07:01;6.80;99.90
10247;DHT22;5168;47.854;7.944;2023-04-23T20:09:27;7.10;99.90
10247;DHT22;5168;47.854;7.944;2023-04-23T20:11:52;7.00;99.90
10247;DHT22;5168;47.854;7.944;2023-04-23T20:19:12;7.30;99.90
10247;DHT22;5168;47.854;7.944;2023-04-23T20:24:05;7.10;99.90
10247;DHT22;5168;47.854;7.944;2023-04-23T20:26:32;7.30;99.90
10247;DHT22;5168;47.854;7.944;2023-04-23T20:28:58;7.30;99.90
10247;DHT22;5168;47.854;7.944;2023-04-23T20:31:23;7.40;99.90
10247;DHT22;5168;47.854;7.944;2023-04-23T20:38:41;7.20;99.90
10247;DHT22;5168;47.854;7.944;2023-04-23T20:41:06;7.20;99.90
10247;DHT22;5168;47.854;7.944;2023-04-23T20:43:34;7.10;99.90
10247;DHT22;5168;47.854;7.944;2023-04-23T20:46:00;7.60;99.90
10247;DHT22;5168;47.854;7.944;2023-04-23T20:48:27;7.40;99.90
10247;DHT22;5168;47.854;7.944;2023-04-23T20:50:54;7.20;99.90
10247;DHT22;5168;47.854;7.944;2023-04-23T21:00:38;6.90;99.90
10247;DHT22;5168;47.854;7.944;2023-04-23T21:03:04;7.20;99.90
10247;DHT22;5168;47.854;7.944;2023-04-23T21:05:30;7.10;99.90
10247;DHT22;5168;47.854;7.944;2023-04-23T21:07:55;7.70;99.90
10247;DHT22;5168;47.854;7.944;2023-04-23T21:10:21;7.80;99.90
10247;DHT22;5168;47.854;7.944;2023-04-23T21:15:14;7.20;99.90
10247;DHT22;5168;47.854;7.944;2023-04-23T21:17:40;7.50;99.90
10247;DHT22;5168;47.854;7.944;2023-04-23T21:20:06;7.40;99.90
10247;DHT22;5168;47.854;7.944;2023-04-23T21:22:33;7.10;99.90
10247;DHT22;5168;47.854;7.944;2023-04-23T21:24:58;7.10;99.90
10247;DHT22;5168;47.854;7.944;2023-04-23T21:29:50;7.10;99.90
10247;DHT22;5168;47.854;7.944;2023-04-23T21:32:16;7.10;99.90
10247;DHT22;5168;47.854;7.944;2023-04-23T21:39:33;7.20;99.90
10247;DHT22;5168;47.854;7.944;2023-04-23T21:41:59;6.80;99.90
10247;DHT22;5168;47.854;7.944;2023-04-23T21:46:52;6.60;99.90
10247;DHT22;5168;47.854;7.944;2023-04-23T21:51:44;6.90;99.90
10247;DHT22;5168;47.854;7.944;2023-04-23T21:54:10;6.80;99.90
10247;DHT22;5168;47.854;7.944;2023-04-23T21:59:02;7.10;99.90
10247;DHT22;5168;47.854;7.944;2023-04-23T22:03:53;6.70;99.90
10247;DHT22;5168;47.854;7.944;2023-04-23T22:11:12;6.60;99.90
10247;DHT22;5168;47.854;7.944;2023-04-23T22:13:38;6.60;99.90
10247;DHT22;5168;47.854;7.944;2023-04-23T22:16:04;7.00;99.90
10247;DHT22;5168;47.854;7.944;2023-04-23T22:18:30;6.70;99.90